Long Beach, California
Current Conditions -  °F | °C
As of 4:53 AM on Sunday 21 Dec 2014 (Local Time) from KLGB Reporting Station
Haze Haze  
Wind Chill: 53°   Ceiling: 2100
Heat Index: 53°   Visibility: 4mi
Dew Point: 49°   Wind: 5mph
Humidity: 86%   Direction: 320°NW
Pressure: 30.12"   Gusts: NA
Location:  33.77°N, 118.19°W
Report Text: KLGB 211253Z AUTO 32004KT 4SM BR SCT012 BKN021 12/09 A3012 RMK AO2 SLP199 T01170094 TSNO
Loading
Personal Weather Stations






























Interactive Weather Map New forecast layout! Learn more

10-Day Weather Forecast

Advertisements
Track Severe Weather on mobile